Time;durP1;ratioP1;P1;durP2;ratioP2;P2;SDS_P1;SDS_P2;PMS_P1;PMS_P2;Temp;Humidity;BMP_temperature;BMP_pressure;BME280_temperature;BME280_humidity;BME280_pressure;Samples;Min_cycle;Max_cycle;Signal;HPM_P1;HPM_P2
2022/01/21 00:00:27;;;;;;;12.07;1.48;;;6.50;90.90;;;;;;5093798;28;20035;-71
2022/01/21 00:02:53;;;;;;;12.60;2.03;;;6.50;90.80;;;;;;5086271;28;20028;-71
2022/01/21 00:05:21;;;;;;;15.73;1.85;;;6.60;90.80;;;;;;5081959;28;20036;-71
2022/01/21 00:07:49;;;;;;;6.30;1.27;;;6.60;90.80;;;;;;5106391;28;20497;-72
2022/01/21 00:10:15;;;;;;;4.45;1.80;;;6.60;90.90;;;;;;5092053;28;20085;-71
2022/01/21 00:12:40;;;;;;;12.65;1.63;;;6.60;91.00;;;;;;5079933;28;20035;-71
2022/01/21 00:15:08;;;;;;;7.18;1.45;;;6.60;91.20;;;;;;5093264;28;20039;-71
2022/01/21 00:17:34;;;;;;;9.95;1.20;;;6.60;91.30;;;;;;5092182;28;20032;-71
2022/01/21 00:30:58;;;;;;;5.55;1.17;;;6.60;91.40;;;;;;5091962;28;20043;-71
2022/01/21 00:33:23;;;;;;;12.05;2.03;;;6.60;91.50;;;;;;5082446;28;20036;-71
2022/01/21 00:35:49;;;;;;;11.95;1.95;;;6.50;91.50;;;;;;5092800;28;20027;-71
2022/01/21 00:38:15;;;;;;;16.30;1.83;;;6.60;91.50;;;;;;5081344;28;20039;-72
2022/01/21 00:40:41;;;;;;;12.95;2.03;;;6.60;91.50;;;;;;5089460;28;20479;-71
2022/01/21 00:43:19;;;;;;;14.93;1.70;;;6.60;91.50;;;;;;5092472;28;20576;-71
2022/01/21 00:45:45;;;;;;;12.82;1.65;;;6.70;91.50;;;;;;5086843;28;20024;-71
2022/01/21 00:48:11;;;;;;;10.07;2.22;;;6.70;91.40;;;;;;5092684;28;20044;-71
2022/01/21 00:50:37;;;;;;;12.65;2.03;;;6.80;91.40;;;;;;5089994;28;20063;-71
2022/01/21 00:53:03;;;;;;;10.75;1.90;;;6.80;91.40;;;;;;5092302;28;20550;-71
2022/01/21 00:55:29;;;;;;;16.77;2.92;;;6.80;91.30;;;;;;5079141;28;20070;-71
2022/01/21 00:57:55;;;;;;;9.27;1.00;;;6.80;91.30;;;;;;5091546;28;20762;-72
2022/01/21 01:00:21;;;;;;;3.33;0.82;;;6.80;91.30;;;;;;5091322;28;20426;-71
2022/01/21 01:02:46;;;;;;;5.82;1.48;;;6.80;91.20;;;;;;5086905;28;20068;-71
2022/01/21 01:05:13;;;;;;;2.05;0.63;;;6.80;91.30;;;;;;5090431;28;20040;-71
2022/01/21 01:07:39;;;;;;;6.45;0.93;;;6.80;91.30;;;;;;5092217;28;20024;-71
2022/01/21 01:10:08;;;;;;;4.38;1.15;;;6.70;91.40;;;;;;5092351;28;20426;-71
2022/01/21 01:12:57;;;;;;;3.53;0.50;;;6.70;91.50;;;;;;5077012;28;20449;-71
2022/01/21 01:20:52;;;;;;;1.92;0.65;;;6.60;91.50;;;;;;5103475;28;20028;-71
2022/01/21 01:23:37;;;;;;;3.83;0.80;;;6.60;91.60;;;;;;5104207;28;20032;-71
2022/01/21 01:28:47;;;;;;;3.20;1.05;;;6.60;91.70;;;;;;5092468;28;20038;-71
2022/01/21 01:31:13;;;;;;;8.77;1.25;;;6.60;91.70;;;;;;5079568;28;20033;-71
2022/01/21 01:33:40;;;;;;;7.53;1.10;;;6.60;91.70;;;;;;5079815;28;20067;-71
2022/01/21 01:36:08;;;;;;;4.32;1.35;;;6.60;91.70;;;;;;5091869;28;20032;-71
2022/01/21 01:41:16;;;;;;;11.43;2.20;;;6.60;91.70;;;;;;5086467;28;20027;-71
2022/01/21 01:51:51;;;;;;;7.93;1.50;;;6.60;91.60;;;;;;5090274;28;20051;-71
2022/01/21 01:54:19;;;;;;;4.95;1.00;;;6.60;91.70;;;;;;5100577;28;20023;-71
2022/01/21 01:56:49;;;;;;;11.25;2.72;;;6.70;91.70;;;;;;5092937;28;20047;-71
2022/01/21 01:59:15;;;;;;;10.00;1.60;;;6.60;91.70;;;;;;5090722;28;20020;-71
2022/01/21 02:01:41;;;;;;;4.60;1.38;;;6.60;91.70;;;;;;5095871;28;20049;-71
2022/01/21 02:04:06;;;;;;;5.07;1.13;;;6.60;91.70;;;;;;5082112;28;20097;-71
2022/01/21 02:06:32;;;;;;;2.80;0.85;;;6.50;91.70;;;;;;5081299;28;20055;-71
2022/01/21 02:09:00;;;;;;;10.38;1.40;;;6.50;91.80;;;;;;5107803;28;20024;-71
2022/01/21 02:11:26;;;;;;;3.90;1.13;;;6.40;91.80;;;;;;5094425;28;20032;-71
2022/01/21 02:14:00;;;;;;;3.30;0.82;;;6.40;91.80;;;;;;5108737;28;20423;-71
2022/01/21 02:21:44;;;;;;;8.95;1.48;;;6.40;91.80;;;;;;5100164;28;20032;-71
2022/01/21 02:24:15;;;;;;;1.35;1.25;;;6.40;91.90;;;;;;5081615;28;20059;-71
2022/01/21 02:26:41;;;;;;;5.13;1.20;;;6.30;91.90;;;;;;5089437;28;20020;-71
2022/01/21 02:29:09;;;;;;;12.45;0.68;;;6.30;91.90;;;;;;5093005;28;20028;-72
2022/01/21 02:31:35;;;;;;;1.88;0.93;;;6.30;91.90;;;;;;5083097;28;20036;-71
2022/01/21 02:34:02;;;;;;;7.70;1.20;;;6.30;92.00;;;;;;5088367;28;20024;-71
2022/01/21 02:36:28;;;;;;;5.80;1.27;;;6.30;92.00;;;;;;5093126;28;20020;-71
2022/01/21 02:38:54;;;;;;;8.63;1.65;;;6.40;91.90;;;;;;5081520;28;20424;-71
2022/01/21 02:41:21;;;;;;;9.38;2.42;;;6.40;91.90;;;;;;5093713;28;20050;-71
2022/01/21 02:43:47;;;;;;;8.65;1.50;;;6.40;91.90;;;;;;5107580;28;20039;-71
2022/01/21 02:46:15;;;;;;;6.10;1.70;;;6.40;91.80;;;;;;5093641;28;20126;-71
2022/01/21 02:48:41;;;;;;;9.13;1.77;;;6.40;91.80;;;;;;5094370;28;20516;-71
2022/01/21 02:51:10;;;;;;;11.35;1.00;;;6.40;91.80;;;;;;5092725;28;20479;-71
2022/01/21 02:54:04;;;;;;;10.55;1.60;;;6.40;91.80;;;;;;5090555;28;20479;-71
2022/01/21 02:56:27;;;;;;;9.55;1.58;;;6.40;91.80;;;;;;5082211;28;20039;-71
2022/01/21 02:58:52;;;;;;;2.70;0.88;;;6.40;91.70;;;;;;5092677;28;20364;-71
2022/01/21 03:01:18;;;;;;;0.73;0.55;;;6.40;91.80;;;;;;5108343;28;20039;-71
2022/01/21 03:03:46;;;;;;;3.10;1.13;;;6.40;91.90;;;;;;5078581;28;20036;-71
2022/01/21 03:06:15;;;;;;;7.03;1.23;;;6.40;91.90;;;;;;5092933;28;20047;-71
2022/01/21 03:08:45;;;;;;;2.88;0.75;;;6.40;91.90;;;;;;5091460;28;20058;-70
2022/01/21 03:11:12;;;;;;;1.42;0.82;;;6.40;91.90;;;;;;5092347;28;20036;-71
2022/01/21 03:13:42;;;;;;;9.00;1.05;;;6.40;91.80;;;;;;5102244;28;20028;-71
2022/01/21 03:16:11;;;;;;;4.53;1.20;;;6.50;91.90;;;;;;5090926;28;20559;-70
2022/01/21 03:18:37;;;;;;;8.25;1.45;;;6.50;91.90;;;;;;5095970;28;20039;-71
2022/01/21 03:21:03;;;;;;;10.52;1.52;;;6.40;91.80;;;;;;5082653;28;20107;-71
2022/01/21 03:23:30;;;;;;;8.85;1.50;;;6.40;91.90;;;;;;5094137;28;20120;-70
2022/01/21 03:25:56;;;;;;;12.98;1.95;;;6.50;91.90;;;;;;5091885;28;20020;-75
2022/01/21 03:28:38;;;;;;;9.67;1.93;;;6.50;91.90;;;;;;5093072;28;20032;-71
2022/01/21 03:31:04;;;;;;;14.93;2.25;;;6.50;91.80;;;;;;5097192;28;20128;-71
2022/01/21 03:33:30;;;;;;;5.38;1.40;;;6.50;91.80;;;;;;5091893;28;20119;-71
2022/01/21 03:35:56;;;;;;;11.07;1.50;;;6.60;91.90;;;;;;5085467;28;20453;-71
2022/01/21 03:38:26;;;;;;;11.45;2.20;;;6.60;91.90;;;;;;5089029;28;20111;-76
2022/01/21 03:40:53;;;;;;;12.95;1.48;;;6.60;91.90;;;;;;5092013;28;20552;-70
2022/01/21 03:43:20;;;;;;;14.65;1.83;;;6.60;91.80;;;;;;5093312;28;20518;-70
2022/01/21 03:45:47;;;;;;;9.57;1.60;;;6.70;91.80;;;;;;5092141;28;20421;-71
2022/01/21 03:48:13;;;;;;;9.07;1.83;;;6.70;91.80;;;;;;5091958;28;20377;-71
2022/01/21 03:50:39;;;;;;;6.05;1.45;;;6.70;91.80;;;;;;5108258;28;20138;-71
2022/01/21 03:53:04;;;;;;;5.43;1.58;;;6.70;91.60;;;;;;5105411;28;20383;-70
2022/01/21 03:55:31;;;;;;;3.20;0.88;;;6.70;91.50;;;;;;5104250;28;20024;-70
2022/01/21 03:57:58;;;;;;;12.13;1.52;;;6.60;91.60;;;;;;5095101;28;20024;-71
2022/01/21 04:00:32;;;;;;;3.55;1.05;;;6.60;91.70;;;;;;5093390;28;20035;-70
2022/01/21 04:02:59;;;;;;;4.40;0.95;;;6.50;91.70;;;;;;5091992;28;20032;-70
2022/01/21 04:05:26;;;;;;;3.45;1.13;;;6.50;91.80;;;;;;5092273;28;20039;-70
2022/01/21 04:07:51;;;;;;;4.60;1.20;;;6.50;91.80;;;;;;5104737;28;20036;-70
2022/01/21 04:10:20;;;;;;;4.32;0.93;;;6.50;91.80;;;;;;5102668;28;20019;-71
2022/01/21 04:12:46;;;;;;;8.15;1.40;;;6.50;91.80;;;;;;5080693;28;20490;-70
2022/01/21 04:15:12;;;;;;;9.38;1.42;;;6.50;91.80;;;;;;5090914;28;20028;-71
2022/01/21 04:17:38;;;;;;;1.40;0.57;;;6.50;91.70;;;;;;5091987;28;20383;-71
2022/01/21 04:20:09;;;;;;;5.50;1.23;;;6.50;91.70;;;;;;5092690;28;20055;-71
2022/01/21 04:22:38;;;;;;;3.97;0.93;;;6.50;91.70;;;;;;5102913;28;20046;-71
2022/01/21 04:25:06;;;;;;;7.20;0.80;;;6.50;91.70;;;;;;5093409;28;20036;-71
2022/01/21 04:27:32;;;;;;;11.48;1.08;;;6.40;91.70;;;;;;5102096;28;20036;-71
2022/01/21 04:29:58;;;;;;;4.13;1.02;;;6.40;91.60;;;;;;5088210;28;20386;-71
2022/01/21 04:32:29;;;;;;;6.90;1.10;;;6.40;91.60;;;;;;5082420;28;20062;-71
2022/01/21 04:34:55;;;;;;;10.27;1.98;;;6.40;91.60;;;;;;5091307;28;20031;-71
2022/01/21 04:37:21;;;;;;;3.97;1.00;;;6.40;91.60;;;;;;5090895;28;20038;-71
2022/01/21 04:40:06;;;;;;;2.80;0.80;;;6.30;91.50;;;;;;5090093;28;20035;-71
2022/01/21 04:48:02;;;;;;;5.88;1.95;;;6.30;91.60;;;;;;5091079;28;20392;-71
2022/01/21 04:50:32;;;;;;;18.95;1.83;;;6.30;91.60;;;;;;5090355;28;20054;-71
2022/01/21 04:52:59;;;;;;;10.27;1.50;;;6.30;91.70;;;;;;5091354;28;20411;-71
2022/01/21 04:55:36;;;;;;;12.73;1.88;;;6.20;91.70;;;;;;5090902;28;20110;-71
2022/01/21 04:58:03;;;;;;;10.18;1.65;;;6.20;91.80;;;;;;5090437;28;20036;-71
2022/01/21 05:00:29;;;;;;;6.20;1.13;;;6.20;91.80;;;;;;5093771;28;20081;-71
2022/01/21 05:02:56;;;;;;;12.30;1.50;;;6.30;91.80;;;;;;5101445;28;20126;-71
2022/01/21 05:05:23;;;;;;;13.40;1.30;;;6.30;91.80;;;;;;5090217;28;20031;-71
2022/01/21 05:07:49;;;;;;;14.50;1.30;;;6.30;91.80;;;;;;5091080;28;20429;-70
2022/01/21 05:10:15;;;;;;;10.57;1.40;;;6.20;91.70;;;;;;5090805;28;20052;-71
2022/01/21 05:12:44;;;;;;;3.65;1.13;;;6.30;91.80;;;;;;5078459;28;20032;-71
2022/01/21 05:15:17;;;;;;;10.48;1.50;;;6.20;91.70;;;;;;5090549;28;20082;-71
2022/01/21 05:17:48;;;;;;;19.63;1.60;;;6.20;91.70;;;;;;5091188;28;20040;-71
2022/01/21 05:20:16;;;;;;;6.33;1.13;;;6.20;91.70;;;;;;5090472;28;20028;-71
2022/01/21 05:22:52;;;;;;;10.10;1.30;;;6.20;91.70;;;;;;5091203;28;20031;-71
2022/01/21 05:25:19;;;;;;;4.13;0.90;;;6.20;91.80;;;;;;5089752;28;20024;-71
2022/01/21 05:27:51;;;;;;;5.85;2.80;;;6.10;91.80;;;;;;5090769;28;20555;-71
2022/01/21 05:30:17;;;;;;;2.65;0.98;;;6.10;91.80;;;;;;5088679;28;20075;-71
2022/01/21 05:32:56;;;;;;;7.78;1.40;;;6.10;91.80;;;;;;5087079;28;20036;-71
2022/01/21 05:35:40;;;;;;;5.55;0.80;;;6.00;91.80;;;;;;5100957;28;20130;-71
2022/01/21 05:38:35;;;;;;;6.85;1.23;;;6.00;91.80;;;;;;5054502;28;20427;-70
2022/01/21 05:41:25;;;;;;;11.50;1.20;;;6.00;91.70;;;;;;5091935;28;20039;-72
2022/01/21 05:44:12;;;;;;;7.47;1.13;;;5.90;91.80;;;;;;5100956;28;20031;-73
2022/01/21 05:46:57;;;;;;;7.22;1.40;;;5.90;91.90;;;;;;5098863;28;20024;-71
2022/01/21 05:49:28;;;;;;;10.32;1.52;;;5.80;92.00;;;;;;5104520;28;20058;-70
2022/01/21 05:52:40;;;;;;;6.55;1.35;;;5.90;92.10;;;;;;5090796;28;20097;-71
2022/01/21 05:55:24;;;;;;;6.13;1.40;;;5.90;92.20;;;;;;5100774;28;20117;-71
2022/01/21 05:58:13;;;;;;;2.90;1.10;;;5.80;92.20;;;;;;5093177;28;20041;-72
2022/01/21 06:00:43;;;;;;;4.63;1.75;;;5.80;92.30;;;;;;5109630;28;20039;-71
2022/01/21 06:03:10;;;;;;;6.07;1.15;;;5.80;92.30;;;;;;5101792;28;20032;-72
2022/01/21 06:05:37;;;;;;;8.57;1.90;;;5.80;92.30;;;;;;5099794;28;20028;-71
2022/01/21 06:08:04;;;;;;;4.95;1.20;;;5.80;92.30;;;;;;5098695;28;20024;-78
2022/01/21 06:10:30;;;;;;;6.07;1.23;;;5.80;92.30;;;;;;5100518;28;20043;-75
2022/01/21 06:12:56;;;;;;;11.13;1.58;;;5.90;92.40;;;;;;5084477;28;20040;-73
2022/01/21 06:15:23;;;;;;;7.63;1.33;;;5.80;92.40;;;;;;5093599;28;20505;-72
2022/01/21 06:17:49;;;;;;;1.30;1.10;;;5.80;92.40;;;;;;5102086;28;20039;-72
2022/01/21 06:20:15;;;;;;;9.15;2.08;;;5.80;92.40;;;;;;5097939;28;20019;-72
2022/01/21 06:22:40;;;;;;;11.77;1.92;;;5.80;92.50;;;;;;5107236;28;20031;-72
2022/01/21 06:25:06;;;;;;;14.10;1.63;;;5.90;92.60;;;;;;5097209;28;20059;-70
2022/01/21 06:27:34;;;;;;;7.00;1.58;;;5.80;92.60;;;;;;5105032;28;20498;-71
2022/01/21 06:30:00;;;;;;;10.02;1.80;;;5.90;92.60;;;;;;5093256;28;20020;-71
2022/01/21 06:32:26;;;;;;;18.23;2.83;;;5.80;93.00;;;;;;5101223;28;20374;-72
2022/01/21 06:34:51;;;;;;;13.02;2.00;;;5.90;92.80;;;;;;5107684;28;20036;-71
2022/01/21 06:37:20;;;;;;;12.88;2.50;;;5.90;92.90;;;;;;5095793;28;20074;-71
2022/01/21 06:39:45;;;;;;;7.75;1.92;;;5.90;93.10;;;;;;5108433;28;20022;-73
2022/01/21 06:42:11;;;;;;;5.38;1.20;;;5.90;93.30;;;;;;5108644;28;20024;-72
2022/01/21 06:44:37;;;;;;;13.95;1.70;;;5.90;93.20;;;;;;5114879;28;20383;-75
2022/01/21 06:47:03;;;;;;;7.25;1.52;;;5.90;93.20;;;;;;5109928;28;20478;-89
2022/01/21 06:49:29;;;;;;;7.72;1.73;;;5.90;93.20;;;;;;5095147;28;20714;-77
2022/01/21 06:51:55;;;;;;;9.40;2.38;;;5.90;93.10;;;;;;5105111;28;20047;-72
2022/01/21 06:54:20;;;;;;;13.93;2.55;;;5.90;93.20;;;;;;5106903;28;20028;-72
2022/01/21 06:56:46;;;;;;;8.88;1.75;;;5.90;93.10;;;;;;5088464;28;20036;-72
2022/01/21 06:59:12;;;;;;;14.07;1.67;;;6.00;93.10;;;;;;5088304;28;20032;-72
2022/01/21 07:01:37;;;;;;;5.55;1.23;;;6.00;93.10;;;;;;5094216;28;20434;-72
2022/01/21 07:04:03;;;;;;;7.25;1.67;;;6.00;93.00;;;;;;5092966;28;20111;-73
2022/01/21 07:06:29;;;;;;;7.03;2.00;;;6.00;93.00;;;;;;5081587;28;20035;-73
2022/01/21 07:08:55;;;;;;;3.15;1.23;;;6.00;92.90;;;;;;5081858;28;20035;-73
2022/01/21 07:11:20;;;;;;;4.85;1.02;;;6.00;92.90;;;;;;5075076;28;20396;-72
2022/01/21 07:13:46;;;;;;;8.55;1.08;;;6.00;92.90;;;;;;5090045;28;20382;-73
2022/01/21 07:16:12;;;;;;;9.98;1.48;;;6.00;92.80;;;;;;5094406;28;20036;-72
2022/01/21 07:18:37;;;;;;;12.25;1.73;;;6.00;92.80;;;;;;5093378;28;20028;-72
2022/01/21 07:21:03;;;;;;;8.00;1.88;;;6.00;92.80;;;;;;5094213;28;20067;-72
2022/01/21 07:23:29;;;;;;;13.88;1.75;;;6.00;92.80;;;;;;5094119;28;20089;-73
2022/01/21 07:25:54;;;;;;;7.20;1.42;;;6.10;92.80;;;;;;5093952;28;20035;-72
2022/01/21 07:28:20;;;;;;;10.40;1.80;;;6.10;92.80;;;;;;5094032;28;20069;-72
2022/01/21 07:30:46;;;;;;;14.73;2.35;;;6.10;92.80;;;;;;5085357;28;20399;-72
2022/01/21 07:33:13;;;;;;;9.05;1.58;;;6.10;92.80;;;;;;5094799;28;20035;-72
2022/01/21 07:35:39;;;;;;;19.00;2.55;;;6.10;93.00;;;;;;5103043;28;20028;-72
2022/01/21 07:38:05;;;;;;;15.40;1.58;;;6.10;92.70;;;;;;5088646;28;20071;-72
2022/01/21 07:40:31;;;;;;;11.23;1.92;;;6.10;92.70;;;;;;5084903;28;20059;-72
2022/01/21 07:42:56;;;;;;;20.20;2.15;;;6.10;92.70;;;;;;5081771;28;20028;-72
2022/01/21 07:45:23;;;;;;;13.10;1.95;;;6.10;92.70;;;;;;5093557;28;20058;-72
2022/01/21 07:47:48;;;;;;;15.55;2.03;;;6.20;92.70;;;;;;5092626;28;20035;-72
2022/01/21 07:50:14;;;;;;;11.05;1.65;;;6.20;92.60;;;;;;5093717;28;20135;-73
2022/01/21 07:52:40;;;;;;;16.33;2.80;;;6.20;92.60;;;;;;5092464;28;20105;-72
2022/01/21 07:55:06;;;;;;;7.03;1.75;;;6.20;92.60;;;;;;5081174;28;20479;-72
2022/01/21 07:57:32;;;;;;;11.07;2.00;;;6.20;92.50;;;;;;5080492;28;20084;-72
2022/01/21 07:59:58;;;;;;;12.15;1.73;;;6.20;92.50;;;;;;5092246;28;20032;-72
2022/01/21 08:02:31;;;;;;;9.13;1.80;;;6.20;92.50;;;;;;5100993;28;20035;-72
2022/01/21 08:04:57;;;;;;;13.65;2.88;;;6.20;92.50;;;;;;5098605;28;20028;-73
2022/01/21 08:07:23;;;;;;;8.93;1.45;;;6.20;92.50;;;;;;5092933;28;20043;-73
2022/01/21 08:09:49;;;;;;;1.63;0.75;;;6.10;92.50;;;;;;5093028;28;20035;-73
2022/01/21 08:12:16;;;;;;;5.93;0.77;;;6.20;92.50;;;;;;5082788;28;20070;-73
2022/01/21 08:14:43;;;;;;;4.25;1.00;;;6.10;92.80;;;;;;5092463;28;20040;-74
2022/01/21 08:17:09;;;;;;;2.55;1.17;;;6.10;92.60;;;;;;5093086;28;20042;-73
2022/01/21 08:19:34;;;;;;;3.80;1.23;;;6.10;92.60;;;;;;5104500;28;20397;-74
2022/01/21 08:22:00;;;;;;;1.50;0.77;;;6.10;92.60;;;;;;5094433;28;20395;-74
2022/01/21 08:24:26;;;;;;;0.43;0.43;;;6.10;92.60;;;;;;5104862;28;20042;-73
2022/01/21 08:26:51;;;;;;;0.40;0.40;;;6.10;92.60;;;;;;5099407;28;20043;-74
2022/01/21 08:29:17;;;;;;;0.90;0.80;;;6.00;92.60;;;;;;5100730;28;20036;-74
2022/01/21 08:31:46;;;;;;;5.43;1.45;;;6.00;92.60;;;;;;5083811;28;20043;-73
2022/01/21 08:34:15;;;;;;;15.48;3.00;;;6.00;92.70;;;;;;5092909;28;20024;-73
2022/01/21 08:36:43;;;;;;;9.65;1.95;;;6.00;92.70;;;;;;5091721;28;20387;-73
2022/01/21 08:39:09;;;;;;;14.85;2.38;;;6.00;92.70;;;;;;5079723;28;20135;-73
2022/01/21 08:41:35;;;;;;;12.73;1.98;;;6.00;92.70;;;;;;5105636;28;20035;-73
2022/01/21 08:44:01;;;;;;;11.25;1.77;;;6.10;92.80;;;;;;5091761;28;20036;-74
2022/01/21 08:46:26;;;;;;;19.13;2.75;;;6.10;92.80;;;;;;5080745;28;20031;-74
2022/01/21 08:48:52;;;;;;;21.33;3.35;;;6.10;92.70;;;;;;5091833;28;20020;-73
2022/01/21 08:51:29;;;;;;;19.90;2.45;;;6.10;92.70;;;;;;5092481;28;20044;-73
2022/01/21 08:53:55;;;;;;;16.92;2.60;;;6.10;92.80;;;;;;5092269;28;20027;-73
2022/01/21 08:56:21;;;;;;;16.88;2.20;;;6.10;92.70;;;;;;5092167;28;20034;-74
2022/01/21 08:58:48;;;;;;;14.93;2.90;;;6.20;92.70;;;;;;5092599;28;20063;-73
2022/01/21 09:01:14;;;;;;;36.40;3.20;;;6.20;92.80;;;;;;5092148;28;20499;-74
2022/01/21 09:03:40;;;;;;;24.83;2.90;;;6.30;92.80;;;;;;5078113;28;20065;-73
2022/01/21 09:06:07;;;;;;;15.35;2.00;;;6.30;92.80;;;;;;5092394;28;20024;-73
2022/01/21 09:08:33;;;;;;;11.25;1.70;;;6.30;92.80;;;;;;5092132;28;20115;-73
2022/01/21 09:11:03;;;;;;;26.95;2.97;;;6.30;92.70;;;;;;5088351;28;20108;-74
2022/01/21 09:13:31;;;;;;;10.40;1.88;;;6.40;92.70;;;;;;5091692;28;20440;-73
2022/01/21 09:15:59;;;;;;;18.67;2.45;;;6.40;92.60;;;;;;5105097;28;20034;-73
2022/01/21 09:18:44;;;;;;;28.67;3.05;;;6.40;92.60;;;;;;5091307;28;20028;-73
2022/01/21 09:21:13;;;;;;;19.23;2.40;;;6.40;92.80;;;;;;5103519;28;20047;-73
2022/01/21 09:23:39;;;;;;;28.20;3.20;;;6.40;92.60;;;;;;5093825;28;20027;-73
2022/01/21 09:26:05;;;;;;;9.95;1.92;;;6.40;92.70;;;;;;5081434;28;20036;-74
2022/01/21 09:28:30;;;;;;;11.63;1.38;;;6.40;92.70;;;;;;5090480;28;20035;-74
2022/01/21 09:30:56;;;;;;;19.95;2.22;;;6.50;92.60;;;;;;5082492;28;20067;-73
2022/01/21 09:33:21;;;;;;;24.80;3.28;;;6.40;92.60;;;;;;5084238;28;20044;-73
2022/01/21 09:35:47;;;;;;;5.03;1.60;;;6.50;92.60;;;;;;5084366;28;20374;-73
2022/01/21 09:38:13;;;;;;;14.52;2.13;;;6.50;92.50;;;;;;5085466;28;20025;-73
2022/01/21 09:40:49;;;;;;;9.15;1.38;;;6.50;92.60;;;;;;5085018;28;20032;-73
2022/01/21 09:43:16;;;;;;;9.55;1.65;;;6.50;92.60;;;;;;5092163;28;20035;-73
2022/01/21 09:45:46;;;;;;;9.98;1.55;;;6.50;92.60;;;;;;5091356;28;20125;-73
2022/01/21 09:48:20;;;;;;;18.27;2.47;;;6.50;92.70;;;;;;5091984;28;20040;-73
2022/01/21 09:50:47;;;;;;;14.85;2.40;;;6.50;93.00;;;;;;5091645;28;20048;-73
2022/01/21 09:53:13;;;;;;;21.10;3.22;;;6.60;93.10;;;;;;5091372;28;20126;-73
2022/01/21 09:55:40;;;;;;;11.63;2.17;;;6.60;93.40;;;;;;5091377;28;20468;-73
2022/01/21 09:58:08;;;;;;;12.52;1.67;;;6.60;93.70;;;;;;5092445;28;20024;-73
2022/01/21 10:00:34;;;;;;;20.00;2.63;;;6.60;93.70;;;;;;5090763;28;20425;-73
2022/01/21 10:03:03;;;;;;;21.98;2.45;;;6.70;93.80;;;;;;5091608;28;20118;-68
2022/01/21 10:05:30;;;;;;;13.95;2.85;;;6.70;94.00;;;;;;5093787;28;20024;-67
2022/01/21 10:07:59;;;;;;;19.05;1.92;;;6.80;94.00;;;;;;5098004;28;20411;-67
2022/01/21 10:10:24;;;;;;;26.17;2.95;;;6.90;94.10;;;;;;5107858;28;20027;-68
2022/01/21 10:13:01;;;;;;;14.10;2.00;;;6.90;94.20;;;;;;5080311;28;20058;-67
2022/01/21 10:15:26;;;;;;;22.17;2.50;;;7.00;94.20;;;;;;5104145;28;20361;-67
2022/01/21 10:18:00;;;;;;;14.93;2.50;;;7.10;94.20;;;;;;5096335;28;20047;-67
2022/01/21 10:20:26;;;;;;;15.70;1.70;;;7.10;94.30;;;;;;5100883;28;20502;-67
2022/01/21 10:23:05;;;;;;;15.77;1.95;;;7.20;94.30;;;;;;5106253;28;20028;-67
2022/01/21 10:25:32;;;;;;;12.90;2.00;;;7.20;94.30;;;;;;5104091;28;20942;-68
2022/01/21 10:28:19;;;;;;;15.50;2.05;;;7.20;94.40;;;;;;5095871;28;20035;-67
2022/01/21 10:30:48;;;;;;;13.98;1.58;;;7.30;94.70;;;;;;5111175;28;20031;-68
2022/01/21 10:33:22;;;;;;;15.45;2.00;;;7.30;94.90;;;;;;5114178;28;20509;-67
2022/01/21 10:35:50;;;;;;;19.63;1.95;;;7.40;95.00;;;;;;5105353;28;20391;-67
2022/01/21 10:38:29;;;;;;;16.50;1.70;;;7.50;95.00;;;;;;5091037;28;20032;-67
2022/01/21 10:41:06;;;;;;;21.27;2.97;;;7.50;95.00;;;;;;5095373;28;20153;-67
2022/01/21 10:43:32;;;;;;;21.45;2.78;;;7.50;95.00;;;;;;5093345;28;20036;-67
2022/01/21 10:46:03;;;;;;;15.98;2.80;;;7.60;95.00;;;;;;5093748;28;20486;-67
2022/01/21 10:48:57;;;;;;;12.95;1.70;;;7.60;95.10;;;;;;5085017;28;20028;-67
2022/01/21 10:51:28;;;;;;;19.80;3.05;;;7.70;95.10;;;;;;5092748;28;20121;-67
2022/01/21 10:54:10;;;;;;;22.58;2.63;;;7.70;95.00;;;;;;5082615;28;20040;-67
2022/01/21 10:56:36;;;;;;;9.77;1.55;;;7.70;94.80;;;;;;5082627;28;20639;-67
2022/01/21 10:59:02;;;;;;;15.40;2.40;;;7.70;94.50;;;;;;5094605;28;20064;-67
2022/01/21 11:01:30;;;;;;;11.38;1.60;;;7.70;94.40;;;;;;5094660;28;20038;-67
2022/01/21 11:04:08;;;;;;;2.47;0.93;;;7.70;94.10;;;;;;5077435;28;20024;-67
2022/01/21 11:06:50;;;;;;;6.38;1.67;;;7.70;93.80;;;;;;5074612;28;20032;-67
2022/01/21 11:09:24;;;;;;;29.45;4.03;;;7.70;93.70;;;;;;5088825;28;20153;-67
2022/01/21 11:12:16;;;;;;;16.75;2.05;;;7.70;94.10;;;;;;5102284;28;20395;-68
2022/01/21 11:14:56;;;;;;;16.27;2.28;;;7.70;94.00;;;;;;5090504;28;20031;-68
2022/01/21 11:17:21;;;;;;;20.25;3.00;;;7.70;94.30;;;;;;5086410;28;20487;-67
2022/01/21 11:20:18;;;;;;;19.35;2.38;;;7.70;94.60;;;;;;5082151;28;20036;-68
2022/01/21 11:22:59;;;;;;;12.02;2.22;;;7.70;94.80;;;;;;5105324;28;20085;-67
2022/01/21 11:25:48;;;;;;;13.75;1.50;;;7.70;95.00;;;;;;5100509;28;20032;-67
2022/01/21 11:28:21;;;;;;;14.50;1.95;;;7.80;95.20;;;;;;5098407;28;20525;-67
2022/01/21 11:30:49;;;;;;;13.60;2.58;;;7.80;95.20;;;;;;5099262;28;20124;-67
2022/01/21 11:33:15;;;;;;;22.20;2.17;;;7.80;95.20;;;;;;5099214;28;20048;-69
2022/01/21 11:35:41;;;;;;;9.05;2.05;;;7.80;95.40;;;;;;5104293;28;20068;-67
2022/01/21 11:38:12;;;;;;;16.73;2.67;;;7.80;95.70;;;;;;5102919;28;20053;-67
2022/01/21 11:40:39;;;;;;;8.45;1.70;;;7.80;95.70;;;;;;5106656;28;20028;-67
2022/01/21 11:43:07;;;;;;;17.92;1.85;;;7.90;95.90;;;;;;5108044;28;20066;-67
2022/01/21 11:50:46;;;;;;;11.82;2.25;;;7.90;96.10;;;;;;5109246;28;20055;-68
2022/01/21 11:53:13;;;;;;;18.40;3.25;;;8.00;96.10;;;;;;5106696;28;20032;-67
2022/01/21 11:55:45;;;;;;;14.88;2.65;;;8.00;96.30;;;;;;5107125;28;20032;-66
2022/01/21 11:58:14;;;;;;;12.52;2.08;;;8.10;96.30;;;;;;5109721;28;20019;-66
2022/01/21 12:00:40;;;;;;;11.00;1.75;;;8.10;96.30;;;;;;5105585;28;20477;-68
2022/01/21 12:03:06;;;;;;;12.35;1.95;;;8.10;96.30;;;;;;5101187;28;20029;-68
2022/01/21 12:05:34;;;;;;;20.17;3.28;;;8.20;96.20;;;;;;5106116;28;20114;-68
2022/01/21 12:08:04;;;;;;;12.60;1.70;;;8.20;96.20;;;;;;5108435;28;20067;-68
2022/01/21 12:10:33;;;;;;;12.68;2.75;;;8.20;96.30;;;;;;5110845;28;20398;-68
2022/01/21 12:13:09;;;;;;;8.27;1.90;;;8.20;96.10;;;;;;5110201;28;20107;-68
2022/01/21 12:15:45;;;;;;;17.42;2.10;;;8.30;96.20;;;;;;5112089;28;20038;-68
2022/01/21 12:20:50;;;;;;;19.85;2.10;;;8.40;96.30;;;;;;5102358;28;20110;-68
2022/01/21 12:23:21;;;;;;;18.33;1.80;;;8.40;96.10;;;;;;5111122;28;20027;-67
2022/01/21 12:26:17;;;;;;;12.82;1.77;;;8.40;96.20;;;;;;5111784;28;20403;-69
2022/01/21 12:29:07;;;;;;;20.17;3.25;;;8.50;96.20;;;;;;5106218;28;20044;-66
2022/01/21 12:31:44;;;;;;;10.27;1.58;;;8.40;96.20;;;;;;5109962;28;20043;-67
2022/01/21 12:34:27;;;;;;;12.50;1.85;;;8.50;96.10;;;;;;5111372;28;20034;-67
2022/01/21 12:37:01;;;;;;;10.63;1.60;;;8.50;95.90;;;;;;5111350;28;20036;-66
2022/01/21 12:39:44;;;;;;;22.98;2.10;;;8.50;96.10;;;;;;5110868;28;20015;-66
2022/01/21 12:42:23;;;;;;;19.00;1.95;;;8.60;96.20;;;;;;5108206;28;20459;-66
2022/01/21 12:44:53;;;;;;;12.27;2.13;;;8.60;96.20;;;;;;5106148;28;20039;-66
2022/01/21 12:47:27;;;;;;;5.53;2.00;;;8.60;96.20;;;;;;5108504;28;20033;-66
2022/01/21 12:49:55;;;;;;;14.52;2.25;;;8.60;96.00;;;;;;5109202;28;20048;-66
2022/01/21 12:53:15;;;;;;;13.75;2.30;;;8.70;96.10;;;;;;5112455;28;20406;-73
2022/01/21 12:56:02;;;;;;;10.15;1.70;;;8.70;96.20;;;;;;5092673;28;20068;-66
2022/01/21 12:58:29;;;;;;;17.90;2.78;;;8.70;96.00;;;;;;5079915;28;20119;-66
2022/01/21 13:01:00;;;;;;;23.35;2.63;;;8.70;95.90;;;;;;5103045;28;20043;-67
2022/01/21 13:03:37;;;;;;;8.50;1.73;;;8.70;95.90;;;;;;5103907;28;20467;-67
2022/01/21 13:06:07;;;;;;;7.80;1.80;;;8.70;96.00;;;;;;5110043;28;20042;-67
2022/01/21 13:08:35;;;;;;;19.38;4.30;;;8.80;95.80;;;;;;5110173;28;20445;-68
2022/01/21 13:11:31;;;;;;;18.73;3.10;;;8.80;95.90;;;;;;5095200;28;20539;-68
2022/01/21 13:14:23;;;;;;;21.58;3.20;;;8.80;95.90;;;;;;5095695;28;20055;-67
2022/01/21 13:17:04;;;;;;;16.50;2.63;;;8.80;95.80;;;;;;5105313;28;20076;-68
2022/01/21 13:19:41;;;;;;;4.25;0.82;;;8.80;95.80;;;;;;5100427;28;20059;-68
2022/01/21 13:22:23;;;;;;;17.98;2.05;;;8.80;95.70;;;;;;5086862;28;20031;-68
2022/01/21 13:27:30;;;;;;;6.20;2.20;;;8.80;95.70;;;;;;5092528;28;20032;-68
2022/01/21 13:30:02;;;;;;;24.08;2.50;;;8.80;95.80;;;;;;5093718;28;20463;-68
2022/01/21 13:32:29;;;;;;;21.00;2.63;;;8.90;96.00;;;;;;5087556;28;20040;-68
2022/01/21 13:35:21;;;;;;;5.95;1.60;;;8.80;96.10;;;;;;5105772;28;20030;-67
2022/01/21 13:38:11;;;;;;;18.92;2.47;;;8.90;96.00;;;;;;5104492;28;20047;-69
2022/01/21 13:40:48;;;;;;;11.27;2.10;;;8.90;96.10;;;;;;5103245;28;20055;-67
2022/01/21 13:43:33;;;;;;;10.15;2.42;;;8.90;96.20;;;;;;5106701;28;20749;-68
2022/01/21 13:46:04;;;;;;;13.90;2.45;;;9.00;96.10;;;;;;5106072;28;20042;-68
2022/01/21 13:48:32;;;;;;;10.85;2.33;;;9.00;96.10;;;;;;5106723;28;20062;-68
2022/01/21 13:51:01;;;;;;;19.63;3.13;;;9.00;96.10;;;;;;5104335;28;20085;-68
2022/01/21 13:53:28;;;;;;;13.50;2.28;;;9.00;96.10;;;;;;5106566;28;20092;-68
2022/01/21 13:55:59;;;;;;;9.27;1.92;;;9.00;96.10;;;;;;5106119;28;20023;-66